createdAt,value
2019-02-17T00:00:25.518Z,0.00
2019-02-17T00:01:25.495Z,0.00
2019-02-17T00:02:25.491Z,0.00
2019-02-17T00:03:25.682Z,0.00
2019-02-17T00:04:25.489Z,0.00
2019-02-17T00:05:25.495Z,0.00
2019-02-17T00:06:25.462Z,0.00
2019-02-17T00:07:25.461Z,0.00
2019-02-17T00:08:25.467Z,0.00
2019-02-17T00:09:25.446Z,0.00
2019-02-17T00:10:25.432Z,0.00
2019-02-17T00:11:25.418Z,0.00
2019-02-17T00:12:25.615Z,0.00
2019-02-17T00:13:25.404Z,0.00
2019-02-17T00:14:25.403Z,0.00
2019-02-17T00:15:25.385Z,0.00
2019-02-17T00:16:25.394Z,0.00
2019-02-17T00:17:25.373Z,0.00
2019-02-17T00:18:25.563Z,0.00
2019-02-17T00:19:25.355Z,0.00
2019-02-17T00:20:25.359Z,0.00
2019-02-17T00:21:25.334Z,0.00
2019-02-17T00:22:25.347Z,0.00
2019-02-17T00:23:25.327Z,0.00
2019-02-17T00:24:25.319Z,0.00
2019-02-17T00:25:25.314Z,0.00
2019-02-17T00:26:25.319Z,0.00
2019-02-17T00:27:25.292Z,0.00
2019-02-17T00:28:25.484Z,0.00
2019-02-17T00:29:25.532Z,0.00
2019-02-17T00:30:25.264Z,0.00
2019-02-17T00:31:25.258Z,0.00
2019-02-17T00:32:25.244Z,0.00
2019-02-17T00:33:25.238Z,0.00
2019-02-17T00:34:25.248Z,0.00
2019-02-17T00:35:25.236Z,0.00
2019-02-17T00:36:25.219Z,0.00
2019-02-17T00:37:25.232Z,0.00
2019-02-17T00:38:25.214Z,0.00
2019-02-17T00:39:25.227Z,0.00
2019-02-17T00:40:25.392Z,0.00
2019-02-17T00:41:25.181Z,0.00
2019-02-17T00:42:25.170Z,0.00
2019-02-17T00:43:25.191Z,0.00
2019-02-17T00:44:25.362Z,0.00
2019-02-17T00:45:25.160Z,0.00
2019-02-17T00:46:25.130Z,0.00
2019-02-17T00:47:25.131Z,0.00
2019-02-17T00:48:25.332Z,0.00
2019-02-17T00:49:25.122Z,0.00
2019-02-17T00:50:25.104Z,0.00
2019-02-17T00:51:25.118Z,0.00
2019-02-17T00:52:25.103Z,0.00
2019-02-17T00:53:25.079Z,0.00
2019-02-17T00:54:25.087Z,0.00
2019-02-17T00:55:25.275Z,0.00
2019-02-17T00:56:25.059Z,0.00
2019-02-17T00:57:25.250Z,0.00
2019-02-17T00:58:25.053Z,0.00
2019-02-17T00:59:25.032Z,0.00
2019-02-17T01:00:25.032Z,0.00
2019-02-17T01:01:25.033Z,0.00
2019-02-17T01:02:25.028Z,0.00
2019-02-17T01:03:24.998Z,0.00
2019-02-17T01:04:25.195Z,0.00
2019-02-17T01:05:25.007Z,0.00
2019-02-17T01:06:24.981Z,0.00
2019-02-17T01:07:24.973Z,0.00
2019-02-17T01:08:24.955Z,0.00
2019-02-17T01:09:25.155Z,0.00
2019-02-17T01:10:24.960Z,0.00
2019-02-17T01:11:25.150Z,0.00
2019-02-17T01:12:24.940Z,0.00
2019-02-17T01:13:24.933Z,0.00
2019-02-17T01:14:24.927Z,0.00
2019-02-17T01:15:24.911Z,0.00
2019-02-17T01:16:25.080Z,0.00
2019-02-17T01:17:24.902Z,0.00
2019-02-17T01:18:24.879Z,0.00
2019-02-17T01:19:24.896Z,0.00
2019-02-17T01:20:24.866Z,0.00
2019-02-17T01:21:24.871Z,0.00
2019-02-17T01:22:24.850Z,0.00
2019-02-17T01:23:24.835Z,0.00
2019-02-17T01:24:24.840Z,0.00
2019-02-17T01:25:24.847Z,0.00
2019-02-17T01:26:24.812Z,0.00
2019-02-17T01:27:24.802Z,0.00
2019-02-17T01:28:24.815Z,0.00
2019-02-17T01:29:24.826Z,0.00
2019-02-17T01:30:24.806Z,0.00
2019-02-17T01:31:24.795Z,0.00
2019-02-17T01:32:24.764Z,0.00
2019-02-17T01:33:24.753Z,0.00
2019-02-17T01:34:24.766Z,0.00
2019-02-17T01:35:24.737Z,0.00
2019-02-17T01:36:24.723Z,0.00
2019-02-17T01:37:24.716Z,0.00
2019-02-17T01:38:24.928Z,0.00
2019-02-17T01:39:24.909Z,0.00
2019-02-17T01:40:24.711Z,0.00
2019-02-17T01:41:24.686Z,0.00
2019-02-17T01:42:24.691Z,0.00
2019-02-17T01:43:24.687Z,0.00
2019-02-17T01:44:24.664Z,0.00
2019-02-17T01:45:24.864Z,0.00
2019-02-17T01:46:24.644Z,0.00
2019-02-17T01:47:24.888Z,0.00
2019-02-17T01:48:24.628Z,0.00
2019-02-17T01:49:24.621Z,0.00
2019-02-17T01:50:24.631Z,0.00
2019-02-17T01:51:24.615Z,0.00
2019-02-17T01:52:24.604Z,0.00
2019-02-17T01:53:24.806Z,0.00
2019-02-17T01:54:24.598Z,0.00
2019-02-17T01:55:24.574Z,0.00
2019-02-17T01:56:24.562Z,0.00
2019-02-17T01:57:24.760Z,0.00
2019-02-17T01:58:24.546Z,0.00
2019-02-17T01:59:30.595Z,0.00
2019-02-17T02:00:24.551Z,0.00
2019-02-17T02:01:24.522Z,0.00
2019-02-17T02:02:24.513Z,0.00
2019-02-17T02:03:24.504Z,0.00
2019-02-17T02:04:24.522Z,0.00
2019-02-17T02:05:24.509Z,0.00
2019-02-17T02:06:24.681Z,0.00
2019-02-17T02:07:24.463Z,0.00
2019-02-17T02:08:24.462Z,0.00
2019-02-17T02:09:24.456Z,0.00
2019-02-17T02:10:24.464Z,0.00
2019-02-17T02:11:24.447Z,0.00
2019-02-17T02:12:24.431Z,0.00
2019-02-17T02:13:24.419Z,0.00
2019-02-17T02:14:24.425Z,0.00
2019-02-17T02:15:24.411Z,0.00
2019-02-17T02:16:24.394Z,0.00
2019-02-17T02:17:24.393Z,0.00
2019-02-17T02:18:24.378Z,0.00
2019-02-17T02:19:24.372Z,0.00
2019-02-17T02:20:24.354Z,0.00
2019-02-17T02:21:24.389Z,0.00
2019-02-17T02:22:24.556Z,0.00
2019-02-17T02:23:24.342Z,0.00
2019-02-17T02:24:24.529Z,0.00
2019-02-17T02:25:24.534Z,0.00
2019-02-17T02:26:24.320Z,0.00
2019-02-17T02:27:24.300Z,0.00
2019-02-17T02:28:24.495Z,0.00
2019-02-17T02:29:24.285Z,0.00
2019-02-17T02:30:24.493Z,0.00
2019-02-17T02:31:24.264Z,0.00
2019-02-17T02:32:24.285Z,0.00
2019-02-17T02:33:24.256Z,0.00
2019-02-17T02:34:24.243Z,0.00
2019-02-17T02:35:24.257Z,0.00
2019-02-17T02:36:24.230Z,0.00
2019-02-17T02:37:24.228Z,0.00
2019-02-17T02:38:24.214Z,0.00
2019-02-17T02:39:24.215Z,0.00
2019-02-17T02:40:24.206Z,0.00
2019-02-17T02:41:34.390Z,0.00
2019-02-17T02:42:24.181Z,0.00
2019-02-17T02:43:24.172Z,0.00
2019-02-17T02:44:24.155Z,0.00
2019-02-17T02:45:24.155Z,0.00
2019-02-17T02:46:24.151Z,0.00
2019-02-17T02:47:24.134Z,0.00
2019-02-17T02:48:24.123Z,0.00
2019-02-17T02:49:24.348Z,0.00
2019-02-17T02:50:24.104Z,0.00
2019-02-17T02:51:24.093Z,0.00
2019-02-17T02:52:24.290Z,0.00
2019-02-17T02:53:24.097Z,0.00
2019-02-17T02:54:24.075Z,0.00
2019-02-17T02:55:24.062Z,0.00
2019-02-17T02:56:24.251Z,0.00
2019-02-17T02:57:24.069Z,0.00
2019-02-17T02:58:24.036Z,0.00
2019-02-17T02:59:24.241Z,0.00
2019-02-17T03:00:24.022Z,0.00
2019-02-17T03:01:24.009Z,0.00
2019-02-17T03:02:23.997Z,0.00
2019-02-17T03:03:24.213Z,0.00
2019-02-17T03:04:24.185Z,0.00
2019-02-17T03:05:23.992Z,0.00
2019-02-17T03:06:24.171Z,0.00
2019-02-17T03:07:24.174Z,0.00
2019-02-17T03:08:23.959Z,0.00
2019-02-17T03:09:23.942Z,0.00
2019-02-17T03:10:23.934Z,0.00
2019-02-17T03:11:23.944Z,0.00
2019-02-17T03:12:24.123Z,0.00
2019-02-17T03:13:23.924Z,0.00
2019-02-17T03:14:23.922Z,0.00
2019-02-17T03:15:23.894Z,0.00
2019-02-17T03:16:23.885Z,0.00
2019-02-17T03:17:24.077Z,0.00
2019-02-17T03:18:24.063Z,0.00
2019-02-17T03:19:24.062Z,0.00
2019-02-17T03:20:23.854Z,0.00
2019-02-17T03:21:23.851Z,0.00
2019-02-17T03:22:24.039Z,0.00
2019-02-17T03:23:23.822Z,0.00
2019-02-17T03:24:23.812Z,0.00
2019-02-17T03:25:23.805Z,0.00
2019-02-17T03:26:24.000Z,0.00
2019-02-17T03:27:23.801Z,0.00
2019-02-17T03:28:23.795Z,0.00
2019-02-17T03:29:23.771Z,0.00
2019-02-17T03:30:23.772Z,0.00
2019-02-17T03:31:23.778Z,0.00
2019-02-17T03:32:23.756Z,0.00
2019-02-17T03:33:23.749Z,0.00
2019-02-17T03:34:23.742Z,0.00
2019-02-17T03:35:23.952Z,0.00
2019-02-17T03:36:23.711Z,0.00
2019-02-17T03:37:23.914Z,0.00
2019-02-17T03:38:23.701Z,0.00
2019-02-17T03:39:23.887Z,0.00
2019-02-17T03:40:23.891Z,0.00
2019-02-17T03:41:23.876Z,0.00
2019-02-17T03:42:23.664Z,0.00
2019-02-17T03:43:23.667Z,0.00
2019-02-17T03:44:23.653Z,0.00
2019-02-17T03:45:23.629Z,0.00
2019-02-17T03:46:23.641Z,0.00
2019-02-17T03:47:23.612Z,0.00
2019-02-17T03:48:23.604Z,0.00
2019-02-17T03:49:23.798Z,0.00
2019-02-17T03:50:23.592Z,0.00
2019-02-17T03:51:23.602Z,0.00
2019-02-17T03:52:23.608Z,0.00
2019-02-17T03:53:23.566Z,0.00
2019-02-17T03:54:23.558Z,0.00
2019-02-17T03:55:23.561Z,0.00
2019-02-17T03:56:23.550Z,0.00
2019-02-17T03:57:23.744Z,0.00
2019-02-17T03:58:23.531Z,0.00
2019-02-17T03:59:23.724Z,0.00
2019-02-17T04:00:23.712Z,0.00
2019-02-17T04:01:23.497Z,0.00
2019-02-17T04:02:23.498Z,0.00
2019-02-17T04:03:23.701Z,0.00
2019-02-17T04:04:23.471Z,0.00
2019-02-17T04:05:23.660Z,0.00
2019-02-17T04:06:23.467Z,0.00
2019-02-17T04:07:23.442Z,0.00
2019-02-17T04:08:23.438Z,0.00
2019-02-17T04:09:23.423Z,0.00
2019-02-17T04:10:23.434Z,0.00
2019-02-17T04:11:23.404Z,0.00
2019-02-17T04:12:23.405Z,0.00
2019-02-17T04:13:23.466Z,0.00
2019-02-17T04:14:23.385Z,0.00
2019-02-17T04:15:23.573Z,0.00
2019-02-17T04:16:23.591Z,0.00
2019-02-17T04:17:23.371Z,0.00
2019-02-17T04:18:23.566Z,0.00
2019-02-17T04:19:23.337Z,0.00
2019-02-17T04:20:23.341Z,0.00
2019-02-17T04:21:23.325Z,0.00
2019-02-17T04:22:23.316Z,0.00
2019-02-17T04:23:31.031Z,0.00
2019-02-17T04:24:23.322Z,0.00
2019-02-17T04:25:23.285Z,0.00
2019-02-17T04:26:23.279Z,0.00
2019-02-17T04:27:23.264Z,0.00
2019-02-17T04:28:23.481Z,0.00
2019-02-17T04:29:23.253Z,0.00
2019-02-17T04:30:29.251Z,0.00
2019-02-17T04:31:23.242Z,0.00
2019-02-17T04:32:23.232Z,0.00
2019-02-17T04:33:23.230Z,0.00
2019-02-17T04:34:23.210Z,0.00
2019-02-17T04:35:23.209Z,0.00
2019-02-17T04:36:23.193Z,0.00
2019-02-17T04:37:23.195Z,0.00
2019-02-17T04:38:23.175Z,0.00
2019-02-17T04:39:23.170Z,0.00
2019-02-17T04:40:23.167Z,0.00
2019-02-17T04:41:23.187Z,0.00
2019-02-17T04:42:23.145Z,0.00
2019-02-17T04:43:23.133Z,0.00
2019-02-17T04:44:23.125Z,0.00
2019-02-17T04:45:23.314Z,0.00
2019-02-17T04:46:23.105Z,0.00
2019-02-17T04:47:23.126Z,0.00
2019-02-17T04:48:23.101Z,0.00
2019-02-17T04:49:23.097Z,0.00
2019-02-17T04:50:23.080Z,0.00
2019-02-17T04:51:23.083Z,0.00
2019-02-17T04:52:23.054Z,0.00
2019-02-17T04:53:23.040Z,0.00
2019-02-17T04:54:23.035Z,0.00
2019-02-17T04:55:23.025Z,0.00
2019-02-17T04:56:23.017Z,0.00
2019-02-17T04:57:23.017Z,0.00
2019-02-17T04:58:22.995Z,0.00
2019-02-17T04:59:23.004Z,0.00
2019-02-17T05:00:22.979Z,0.00
2019-02-17T05:01:22.992Z,0.00
2019-02-17T05:02:23.193Z,0.00
2019-02-17T05:03:22.953Z,0.00
2019-02-17T05:04:22.958Z,0.00
2019-02-17T05:05:23.149Z,0.00
2019-02-17T05:06:22.929Z,0.00
2019-02-17T05:07:22.921Z,0.00
2019-02-17T05:08:22.911Z,0.00
2019-02-17T05:09:22.912Z,0.00
2019-02-17T05:10:22.894Z,0.00
2019-02-17T05:11:22.899Z,0.00
2019-02-17T05:12:22.891Z,0.00
2019-02-17T05:13:22.867Z,0.00
2019-02-17T05:14:22.864Z,0.00
2019-02-17T05:15:22.869Z,0.00
2019-02-17T05:16:22.865Z,0.00
2019-02-17T05:17:22.835Z,0.00
2019-02-17T05:18:22.851Z,0.00
2019-02-17T05:19:22.813Z,0.00
2019-02-17T05:20:22.821Z,0.00
2019-02-17T05:21:22.826Z,0.00
2019-02-17T05:22:22.784Z,0.00
2019-02-17T05:23:22.799Z,0.00
2019-02-17T05:24:22.976Z,0.00
2019-02-17T05:25:22.789Z,0.00
2019-02-17T05:26:22.754Z,0.00
2019-02-17T05:27:22.749Z,0.00
2019-02-17T05:28:22.749Z,0.00
2019-02-17T05:29:22.766Z,0.00
2019-02-17T05:30:22.729Z,0.00
2019-02-17T05:31:22.889Z,0.00
2019-02-17T05:32:22.722Z,0.00
2019-02-17T05:33:22.906Z,0.00
2019-02-17T05:34:22.678Z,0.00
2019-02-17T05:35:22.669Z,0.00
2019-02-17T05:36:22.663Z,0.00
2019-02-17T05:37:22.667Z,0.00
2019-02-17T05:38:22.645Z,0.00
2019-02-17T05:39:22.853Z,0.00
2019-02-17T05:40:22.633Z,0.00
2019-02-17T05:41:22.819Z,0.00
2019-02-17T05:42:22.605Z,0.00
2019-02-17T05:43:22.611Z,0.00
2019-02-17T05:44:22.598Z,0.00
2019-02-17T05:45:22.784Z,0.00
2019-02-17T05:46:22.568Z,0.00
2019-02-17T05:47:22.779Z,0.00
2019-02-17T05:48:22.558Z,0.00
2019-02-17T05:49:22.558Z,0.00
2019-02-17T05:50:22.539Z,0.00
2019-02-17T05:51:22.733Z,0.00
2019-02-17T05:52:22.539Z,0.00
2019-02-17T05:53:22.530Z,0.00
2019-02-17T05:54:22.505Z,0.00
2019-02-17T05:55:22.490Z,0.00
2019-02-17T05:56:22.494Z,0.00
2019-02-17T05:57:22.679Z,0.00
2019-02-17T05:58:22.459Z,0.00
2019-02-17T05:59:22.467Z,0.00
2019-02-17T06:00:22.444Z,0.00
2019-02-17T06:01:22.441Z,0.00
2019-02-17T06:02:22.463Z,0.00
2019-02-17T06:03:22.631Z,0.00
2019-02-17T06:04:22.415Z,0.00
2019-02-17T06:05:22.403Z,0.00
2019-02-17T06:06:22.416Z,0.00
2019-02-17T06:07:22.393Z,0.00
2019-02-17T06:08:22.380Z,0.00
2019-02-17T06:09:22.583Z,0.00
2019-02-17T06:10:22.581Z,0.00
2019-02-17T06:11:22.371Z,0.00
2019-02-17T06:12:22.349Z,0.00
2019-02-17T06:13:22.334Z,0.00
2019-02-17T06:14:22.325Z,0.00
2019-02-17T06:15:22.322Z,4.00
2019-02-17T06:16:22.515Z,4.00
2019-02-17T06:17:22.321Z,0.00
2019-02-17T06:18:22.297Z,0.00
2019-02-17T06:19:22.279Z,4.00
2019-02-17T06:20:22.292Z,0.00
2019-02-17T06:21:22.271Z,4.00
2019-02-17T06:22:22.259Z,4.00
2019-02-17T06:23:22.261Z,4.00
2019-02-17T06:24:22.237Z,8.00
2019-02-17T06:25:22.247Z,8.00
2019-02-17T06:26:22.217Z,8.00
2019-02-17T06:27:22.232Z,8.00
2019-02-17T06:28:22.412Z,8.00
2019-02-17T06:29:22.204Z,12.00
2019-02-17T06:30:22.181Z,16.00
2019-02-17T06:31:22.176Z,16.00
2019-02-17T06:32:22.160Z,20.00
2019-02-17T06:33:22.182Z,24.00
2019-02-17T06:34:22.151Z,28.00
2019-02-17T06:35:22.168Z,28.00
2019-02-17T06:36:22.333Z,32.00
2019-02-17T06:37:22.152Z,32.00
2019-02-17T06:38:22.109Z,36.00
2019-02-17T06:39:22.110Z,40.00
2019-02-17T06:40:22.132Z,44.00
2019-02-17T06:41:22.097Z,44.00
2019-02-17T06:42:22.082Z,52.00
2019-02-17T06:43:22.066Z,56.00
2019-02-17T06:44:22.075Z,60.00
2019-02-17T06:45:22.080Z,68.00
2019-02-17T06:46:22.072Z,72.00
2019-02-17T06:47:22.033Z,80.00
2019-02-17T06:48:22.033Z,88.00
2019-02-17T06:49:22.215Z,100.00
2019-02-17T06:50:21.997Z,108.00
2019-02-17T06:51:22.228Z,116.00
2019-02-17T06:52:21.983Z,128.00
2019-02-17T06:53:21.972Z,136.00
2019-02-17T06:54:21.972Z,148.00
2019-02-17T06:55:21.960Z,164.00
2019-02-17T06:56:21.977Z,176.00
2019-02-17T06:57:21.946Z,192.00
2019-02-17T06:58:22.131Z,208.00
2019-02-17T06:59:21.937Z,220.00
2019-02-17T07:00:21.913Z,232.00
2019-02-17T07:01:24.532Z,248.00
2019-02-17T07:02:21.895Z,260.00
2019-02-17T07:03:21.896Z,276.00
2019-02-17T07:04:21.888Z,300.00
2019-02-17T07:05:21.889Z,312.00
2019-02-17T07:06:21.875Z,332.00
2019-02-17T07:07:22.067Z,348.00
2019-02-17T07:08:21.854Z,364.00
2019-02-17T07:09:21.845Z,384.00
2019-02-17T07:10:21.832Z,400.00
2019-02-17T07:11:23.411Z,412.00
2019-02-17T07:12:21.805Z,428.00
2019-02-17T07:13:21.805Z,440.00
2019-02-17T07:14:21.795Z,452.00
2019-02-17T07:15:21.815Z,468.00
2019-02-17T07:16:21.771Z,484.00
2019-02-17T07:17:21.816Z,500.00
2019-02-17T07:18:21.786Z,516.00
2019-02-17T07:19:21.773Z,532.00
2019-02-17T07:20:21.742Z,548.00
2019-02-17T07:21:21.760Z,564.00
2019-02-17T07:22:21.735Z,580.00
2019-02-17T07:23:21.712Z,596.00
2019-02-17T07:24:21.706Z,616.00
2019-02-17T07:25:29.602Z,632.00
2019-02-17T07:26:21.903Z,648.00
2019-02-17T07:27:21.681Z,672.00
2019-02-17T07:28:21.679Z,688.00
2019-02-17T07:29:21.659Z,712.00
2019-02-17T07:30:21.666Z,732.00
2019-02-17T07:31:22.656Z,748.00
2019-02-17T07:32:21.848Z,768.00
2019-02-17T07:33:21.642Z,792.00
2019-02-17T07:34:21.839Z,808.00
2019-02-17T07:35:21.621Z,828.00
2019-02-17T07:36:22.231Z,848.00
2019-02-17T07:37:21.632Z,864.00
2019-02-17T07:38:21.599Z,884.00
2019-02-17T07:39:21.578Z,896.00
2019-02-17T07:40:21.564Z,908.00
2019-02-17T07:41:21.779Z,912.00
2019-02-17T07:42:21.551Z,924.00
2019-02-17T07:43:21.552Z,924.00
2019-02-17T07:44:21.542Z,924.00
2019-02-17T07:45:21.539Z,924.00
2019-02-17T07:46:21.523Z,924.00
2019-02-17T07:47:21.517Z,920.00
2019-02-17T07:48:21.503Z,920.00
2019-02-17T07:49:21.519Z,924.00
2019-02-17T07:50:21.483Z,932.00
2019-02-17T07:51:21.472Z,932.00
2019-02-17T07:52:21.477Z,944.00
2019-02-17T07:53:21.669Z,952.00
2019-02-17T07:54:21.449Z,960.00
2019-02-17T07:55:21.650Z,964.00
2019-02-17T07:56:21.434Z,972.00
2019-02-17T07:57:21.424Z,984.00
2019-02-17T07:58:21.416Z,996.00
2019-02-17T07:59:21.635Z,1008.00
2019-02-17T08:00:21.410Z,1024.00
2019-02-17T08:01:21.597Z,1036.00
2019-02-17T08:02:21.391Z,1040.00
2019-02-17T08:03:21.389Z,1048.00
2019-02-17T08:04:21.377Z,1056.00
2019-02-17T08:05:21.364Z,1068.00
2019-02-17T08:06:21.356Z,1100.00
2019-02-17T08:07:21.348Z,1120.00
2019-02-17T08:08:21.338Z,1144.00
2019-02-17T08:09:21.354Z,1160.00
2019-02-17T08:10:21.317Z,1164.00
2019-02-17T08:11:21.321Z,1168.00
2019-02-17T08:12:21.297Z,1168.00
2019-02-17T08:13:21.499Z,1164.00
2019-02-17T08:14:21.304Z,1188.00
2019-02-17T08:15:21.479Z,1216.00
2019-02-17T08:16:21.486Z,1240.00
2019-02-17T08:17:21.273Z,1268.00
2019-02-17T08:18:21.264Z,1320.00
2019-02-17T08:19:21.253Z,1360.00
2019-02-17T08:20:21.242Z,1348.00
2019-02-17T08:21:21.227Z,1352.00
2019-02-17T08:22:21.243Z,1356.00
2019-02-17T08:23:21.234Z,1364.00
2019-02-17T08:24:21.199Z,1380.00
2019-02-17T08:25:22.185Z,1396.00
2019-02-17T08:26:21.392Z,1396.00
2019-02-17T08:27:21.178Z,1428.00
2019-02-17T08:28:21.170Z,1504.00
2019-02-17T08:29:21.166Z,1572.00
2019-02-17T08:30:21.150Z,1604.00
2019-02-17T08:31:21.142Z,1600.00
2019-02-17T08:32:21.148Z,1596.00
2019-02-17T08:33:21.185Z,1588.00
2019-02-17T08:34:21.139Z,1600.00
2019-02-17T08:35:21.120Z,1584.00
2019-02-17T08:36:21.114Z,1588.00
2019-02-17T08:37:21.108Z,1584.00
2019-02-17T08:38:21.097Z,1600.00
2019-02-17T08:39:21.080Z,1604.00
2019-02-17T08:40:21.087Z,1600.00
2019-02-17T08:41:21.071Z,1600.00
2019-02-17T08:42:21.066Z,1560.00
2019-02-17T08:43:21.064Z,1564.00
2019-02-17T08:44:21.054Z,1480.00
2019-02-17T08:45:21.037Z,1412.00
2019-02-17T08:46:21.245Z,1376.00
2019-02-17T08:47:21.024Z,1348.00
2019-02-17T08:48:21.027Z,1332.00
2019-02-17T08:49:21.023Z,1348.00
2019-02-17T08:50:21.016Z,1372.00
2019-02-17T08:51:21.217Z,1380.00
2019-02-17T08:52:21.192Z,1372.00
2019-02-17T08:53:20.987Z,1380.00
2019-02-17T08:54:20.966Z,1388.00
2019-02-17T08:55:20.963Z,1384.00
2019-02-17T08:56:21.178Z,1384.00
2019-02-17T08:57:20.949Z,1388.00
2019-02-17T08:58:20.948Z,1380.00
2019-02-17T08:59:20.939Z,1392.00
2019-02-17T09:00:21.148Z,1400.00
2019-02-17T09:01:20.925Z,1388.00
2019-02-17T09:02:20.909Z,1396.00
2019-02-17T09:03:20.907Z,1408.00
2019-02-17T09:04:21.098Z,1420.00
2019-02-17T09:05:21.091Z,1412.00
2019-02-17T09:06:20.878Z,1364.00
2019-02-17T09:07:20.871Z,1360.00
2019-02-17T09:08:20.889Z,1368.00
2019-02-17T09:09:21.067Z,1376.00
2019-02-17T09:10:20.870Z,1384.00
2019-02-17T09:11:21.057Z,1388.00
2019-02-17T09:12:20.837Z,1400.00
2019-02-17T09:13:20.842Z,1400.00
2019-02-17T09:14:20.835Z,1408.00
2019-02-17T09:15:20.828Z,1428.00
2019-02-17T09:16:20.825Z,1432.00
2019-02-17T09:17:21.012Z,1444.00
2019-02-17T09:18:20.802Z,1448.00
2019-02-17T09:19:20.793Z,1452.00
2019-02-17T09:20:20.790Z,1464.00
2019-02-17T09:21:20.983Z,1460.00
2019-02-17T09:22:20.767Z,1456.00
2019-02-17T09:23:20.820Z,1440.00
2019-02-17T09:24:20.766Z,1408.00
2019-02-17T09:25:20.756Z,1408.00
2019-02-17T09:26:20.750Z,1404.00
2019-02-17T09:27:20.749Z,1400.00
2019-02-17T09:28:20.758Z,1392.00
2019-02-17T09:29:20.736Z,1384.00
2019-02-17T09:30:20.716Z,1368.00
2019-02-17T09:31:20.705Z,1356.00
2019-02-17T09:32:20.710Z,1364.00
2019-02-17T09:33:20.693Z,1352.00
2019-02-17T09:34:20.737Z,1348.00
2019-02-17T09:35:20.701Z,1352.00
2019-02-17T09:36:20.679Z,1344.00
2019-02-17T09:37:20.689Z,1328.00
2019-02-17T09:38:20.671Z,1320.00
2019-02-17T09:39:20.661Z,1320.00
2019-02-17T09:40:20.653Z,1296.00
2019-02-17T09:41:20.642Z,1300.00
2019-02-17T09:42:20.654Z,1300.00
2019-02-17T09:43:20.651Z,1304.00
2019-02-17T09:44:20.616Z,1304.00
2019-02-17T09:45:20.625Z,1308.00
2019-02-17T09:46:20.604Z,1304.00
2019-02-17T09:47:20.607Z,1284.00
2019-02-17T09:48:20.593Z,1284.00
2019-02-17T09:49:20.589Z,1268.00
2019-02-17T09:50:20.577Z,1268.00
2019-02-17T09:51:20.568Z,1240.00
2019-02-17T09:52:20.565Z,1228.00
2019-02-17T09:53:20.557Z,1212.00
2019-02-17T09:54:20.548Z,1200.00
2019-02-17T09:55:20.544Z,1188.00
2019-02-17T09:56:20.534Z,1176.00
2019-02-17T09:57:20.555Z,1180.00
2019-02-17T09:58:20.545Z,1176.00
2019-02-17T09:59:20.527Z,1184.00
2019-02-17T10:00:20.526Z,1208.00
2019-02-17T10:01:20.505Z,1224.00
2019-02-17T10:02:26.457Z,1236.00
2019-02-17T10:03:20.493Z,1244.00
2019-02-17T10:04:20.501Z,1240.00
2019-02-17T10:05:20.495Z,1244.00
2019-02-17T10:06:20.506Z,1252.00
2019-02-17T10:07:20.469Z,1236.00
2019-02-17T10:08:20.468Z,1232.00
2019-02-17T10:09:20.461Z,1224.00
2019-02-17T10:10:20.467Z,1216.00
2019-02-17T10:11:20.660Z,1208.00
2019-02-17T10:12:20.439Z,1220.00
2019-02-17T10:13:20.648Z,1208.00
2019-02-17T10:14:20.427Z,1192.00
2019-02-17T10:15:20.414Z,1188.00
2019-02-17T10:16:20.628Z,1164.00
2019-02-17T10:17:20.624Z,1144.00
2019-02-17T10:18:20.620Z,1124.00
2019-02-17T10:19:20.391Z,1104.00
2019-02-17T10:20:20.394Z,1080.00
2019-02-17T10:21:20.397Z,1064.00
2019-02-17T10:22:20.389Z,1048.00
2019-02-17T10:23:20.377Z,1032.00
2019-02-17T10:24:20.376Z,1012.00
2019-02-17T10:25:20.357Z,1000.00
2019-02-17T10:26:20.374Z,992.00
2019-02-17T10:27:20.577Z,992.00
2019-02-17T10:28:20.346Z,996.00
2019-02-17T10:29:20.331Z,988.00
2019-02-17T10:30:20.335Z,984.00
2019-02-17T10:31:20.321Z,980.00
2019-02-17T10:32:20.526Z,972.00
2019-02-17T10:33:20.320Z,988.00
2019-02-17T10:34:20.314Z,992.00
2019-02-17T10:35:20.294Z,1004.00
2019-02-17T10:36:20.297Z,1004.00
2019-02-17T10:37:20.292Z,1000.00
2019-02-17T10:38:20.282Z,1012.00
2019-02-17T10:39:20.481Z,1004.00
2019-02-17T10:40:20.492Z,1008.00
2019-02-17T10:41:20.492Z,1008.00
2019-02-17T10:42:20.289Z,1008.00
2019-02-17T10:43:20.258Z,992.00
2019-02-17T10:44:20.264Z,976.00
2019-02-17T10:45:20.245Z,964.00
2019-02-17T10:46:20.251Z,944.00
2019-02-17T10:47:20.234Z,932.00
2019-02-17T10:48:20.244Z,912.00
2019-02-17T10:49:20.294Z,900.00
2019-02-17T10:50:20.268Z,896.00
2019-02-17T10:51:20.263Z,872.00
2019-02-17T10:52:20.255Z,856.00
2019-02-17T10:53:20.241Z,840.00
2019-02-17T10:54:20.216Z,828.00
2019-02-17T10:55:20.220Z,828.00
2019-02-17T10:56:20.215Z,828.00
2019-02-17T10:57:20.201Z,824.00
2019-02-17T10:58:20.198Z,816.00
2019-02-17T10:59:20.214Z,816.00
2019-02-17T11:00:20.234Z,812.00
2019-02-17T11:01:20.201Z,808.00
2019-02-17T11:02:20.193Z,804.00
2019-02-17T11:03:20.184Z,800.00
2019-02-17T11:04:20.190Z,792.00
2019-02-17T11:05:20.192Z,780.00
2019-02-17T11:06:20.168Z,756.00
2019-02-17T11:07:20.149Z,768.00
2019-02-17T11:08:20.154Z,776.00
2019-02-17T11:09:20.150Z,784.00
2019-02-17T11:10:20.137Z,792.00
2019-02-17T11:11:20.155Z,796.00
2019-02-17T11:12:20.126Z,800.00
2019-02-17T11:13:20.174Z,804.00
2019-02-17T11:14:20.127Z,804.00
2019-02-17T11:15:20.165Z,804.00
2019-02-17T11:16:20.135Z,812.00
2019-02-17T11:17:20.113Z,808.00
2019-02-17T11:18:20.087Z,812.00
2019-02-17T11:19:20.072Z,812.00
2019-02-17T11:20:20.084Z,820.00
2019-02-17T11:21:20.059Z,828.00
2019-02-17T11:22:23.166Z,828.00
2019-02-17T11:23:20.066Z,820.00
2019-02-17T11:24:20.048Z,820.00
2019-02-17T11:25:20.040Z,808.00
2019-02-17T11:26:20.043Z,808.00
2019-02-17T11:27:20.029Z,804.00
2019-02-17T11:28:20.020Z,796.00
2019-02-17T11:29:20.226Z,800.00
2019-02-17T11:30:20.031Z,796.00
2019-02-17T11:31:20.226Z,792.00
2019-02-17T11:32:20.003Z,788.00
2019-02-17T11:33:20.257Z,796.00
2019-02-17T11:34:20.002Z,796.00
2019-02-17T11:35:20.007Z,800.00
2019-02-17T11:36:19.989Z,796.00
2019-02-17T11:37:20.042Z,800.00
2019-02-17T11:38:20.185Z,796.00
2019-02-17T11:39:19.983Z,792.00
2019-02-17T11:40:19.973Z,784.00
2019-02-17T11:41:20.170Z,784.00
2019-02-17T11:42:19.965Z,780.00
2019-02-17T11:43:19.951Z,776.00
2019-02-17T11:44:19.978Z,772.00
2019-02-17T11:45:19.950Z,760.00
2019-02-17T11:46:19.944Z,756.00
2019-02-17T11:47:19.953Z,756.00
2019-02-17T11:48:19.942Z,752.00
2019-02-17T11:49:19.939Z,744.00
2019-02-17T11:50:20.124Z,744.00
2019-02-17T11:51:19.918Z,744.00
2019-02-17T11:52:19.927Z,740.00
2019-02-17T11:53:19.932Z,740.00
2019-02-17T11:54:19.922Z,740.00
2019-02-17T11:55:19.903Z,736.00
2019-02-17T11:56:19.913Z,736.00
2019-02-17T11:57:19.940Z,732.00
2019-02-17T11:58:19.888Z,736.00
2019-02-17T11:59:19.896Z,732.00
2019-02-17T12:00:19.895Z,736.00
2019-02-17T12:01:19.894Z,732.00
2019-02-17T12:02:24.893Z,732.00
2019-02-17T12:03:20.096Z,744.00
2019-02-17T12:04:20.084Z,736.00
2019-02-17T12:05:19.876Z,728.00
2019-02-17T12:06:19.866Z,736.00
2019-02-17T12:07:19.864Z,736.00
2019-02-17T12:08:19.847Z,740.00
2019-02-17T12:09:20.059Z,740.00
2019-02-17T12:10:19.836Z,736.00
2019-02-17T12:11:19.855Z,732.00
2019-02-17T12:12:19.830Z,732.00
2019-02-17T12:13:19.826Z,732.00
2019-02-17T12:14:19.823Z,728.00
2019-02-17T12:15:19.816Z,724.00
2019-02-17T12:16:19.843Z,720.00
2019-02-17T12:17:19.814Z,720.00
2019-02-17T12:18:19.815Z,724.00
2019-02-17T12:19:20.007Z,716.00
2019-02-17T12:20:19.812Z,712.00
2019-02-17T12:21:19.795Z,716.00
2019-02-17T12:22:19.794Z,704.00
2019-02-17T12:23:19.790Z,708.00
2019-02-17T12:24:19.996Z,704.00
2019-02-17T12:25:19.804Z,700.00
2019-02-17T12:26:19.780Z,700.00
2019-02-17T12:27:19.778Z,696.00
2019-02-17T12:28:19.765Z,692.00
2019-02-17T12:29:19.764Z,684.00
2019-02-17T12:30:19.964Z,684.00
2019-02-17T12:31:19.759Z,680.00
2019-02-17T12:32:19.969Z,680.00
2019-02-17T12:33:21.777Z,684.00
2019-02-17T12:34:19.762Z,684.00
2019-02-17T12:35:19.735Z,680.00
2019-02-17T12:36:19.736Z,676.00
2019-02-17T12:37:19.931Z,680.00
2019-02-17T12:38:19.735Z,676.00
2019-02-17T12:39:19.723Z,672.00
2019-02-17T12:40:19.718Z,672.00
2019-02-17T12:41:19.938Z,668.00
2019-02-17T12:42:19.706Z,664.00
2019-02-17T12:43:19.735Z,664.00
2019-02-17T12:44:19.719Z,664.00
2019-02-17T12:45:19.702Z,656.00
2019-02-17T12:46:19.706Z,656.00
2019-02-17T12:47:19.686Z,656.00
2019-02-17T12:48:19.680Z,652.00